createdAt,value
2019-02-16T00:02:24.875Z,72.50
2019-02-16T00:06:29.424Z,72.70
2019-02-16T00:10:33.946Z,73.70
2019-02-16T00:14:38.436Z,73.30
2019-02-16T00:18:43.043Z,73.50
2019-02-16T00:22:47.563Z,73.80
2019-02-16T00:26:52.086Z,73.70
2019-02-16T00:30:56.663Z,73.30
2019-02-16T00:35:01.163Z,73.60
2019-02-16T00:39:06.464Z,71.80
2019-02-16T00:43:10.980Z,72.40
2019-02-16T00:47:15.519Z,72.60
2019-02-16T00:51:20.060Z,72.90
2019-02-16T00:55:24.542Z,72.70
2019-02-16T00:59:29.065Z,73.70
2019-02-16T01:03:33.683Z,72.20
2019-02-16T01:07:38.248Z,73.60
2019-02-16T01:11:42.680Z,73.80
2019-02-16T01:15:47.203Z,73.00
2019-02-16T01:19:51.724Z,73.90
2019-02-16T01:23:56.259Z,73.10
2019-02-16T01:28:00.775Z,72.30
2019-02-16T01:32:05.279Z,71.10
2019-02-16T01:36:09.794Z,70.50
2019-02-16T01:40:14.324Z,72.70
2019-02-16T01:44:18.848Z,71.70
2019-02-16T01:48:23.329Z,72.20
2019-02-16T01:52:27.892Z,72.80
2019-02-16T01:56:32.396Z,71.60
2019-02-16T02:00:36.917Z,70.50
2019-02-16T02:04:41.548Z,70.10
2019-02-16T02:08:46.122Z,69.90
2019-02-16T02:12:50.641Z,69.70
2019-02-16T02:16:55.183Z,69.60
2019-02-16T02:20:59.709Z,69.30
2019-02-16T02:25:04.323Z,69.80
2019-02-16T02:29:08.817Z,70.80
2019-02-16T02:33:13.363Z,72.00
2019-02-16T02:37:17.892Z,73.00
2019-02-16T02:41:22.428Z,71.10
2019-02-16T02:45:26.957Z,70.10
2019-02-16T02:49:31.447Z,69.90
2019-02-16T02:53:35.978Z,69.90
2019-02-16T02:57:40.479Z,69.70
2019-02-16T03:01:45.027Z,69.50
2019-02-16T03:05:49.693Z,69.50
2019-02-16T03:09:54.188Z,69.30
2019-02-16T03:13:58.742Z,69.30
2019-02-16T03:18:03.267Z,69.20
2019-02-16T03:22:07.876Z,68.50
2019-02-16T03:26:36.947Z,69.20
2019-02-16T03:30:54.432Z,69.20
2019-02-16T03:35:13.456Z,70.00
2019-02-16T03:39:24.126Z,69.00
2019-02-16T03:43:28.667Z,68.80
2019-02-16T03:47:32.143Z,69.20
2019-02-16T03:51:35.618Z,69.90
2019-02-16T03:55:39.031Z,70.80
2019-02-16T03:59:43.563Z,71.50
2019-02-16T04:03:48.207Z,71.30
2019-02-16T04:07:52.760Z,71.70
2019-02-16T04:11:57.263Z,71.60
2019-02-16T04:16:01.797Z,71.80
2019-02-16T04:20:06.779Z,71.30
2019-02-16T04:24:11.313Z,70.90
2019-02-16T04:28:15.843Z,70.70
2019-02-16T04:32:20.367Z,70.50
2019-02-16T04:36:24.879Z,70.40
2019-02-16T04:40:29.411Z,71.20
2019-02-16T04:44:33.934Z,71.40
2019-02-16T04:48:38.461Z,72.50
2019-02-16T04:52:42.947Z,72.20
2019-02-16T04:56:47.465Z,73.10
2019-02-16T05:00:51.996Z,72.30
2019-02-16T05:04:56.560Z,72.70
2019-02-16T05:12:37.812Z,72.80
2019-02-16T05:16:42.343Z,73.60
2019-02-16T05:20:46.876Z,73.70
2019-02-16T05:24:51.419Z,72.80
2019-02-16T05:28:55.911Z,72.80
2019-02-16T05:33:00.462Z,72.60
2019-02-16T05:37:04.992Z,73.00
2019-02-16T05:41:09.520Z,72.40
2019-02-16T05:45:14.056Z,72.60
2019-02-16T05:49:18.543Z,72.90
2019-02-16T05:53:23.098Z,72.90
2019-02-16T05:57:27.617Z,73.00
2019-02-16T06:01:32.152Z,73.00
2019-02-16T06:05:36.724Z,72.90
2019-02-16T06:09:41.229Z,72.60
2019-02-16T06:13:45.763Z,74.10
2019-02-16T06:17:50.291Z,72.60
2019-02-16T06:21:54.829Z,72.80
2019-02-16T06:25:59.384Z,72.80
2019-02-16T06:30:03.867Z,72.90
2019-02-16T06:37:22.124Z,73.00
2019-02-16T06:45:08.086Z,73.10
2019-02-16T06:49:12.764Z,73.00
2019-02-16T06:53:17.390Z,73.80
2019-02-16T06:57:42.159Z,73.00
2019-02-16T07:03:20.099Z,72.90
2019-02-16T07:09:48.321Z,73.00
2019-02-16T07:13:52.954Z,73.50
2019-02-16T07:20:21.167Z,73.30
2019-02-16T07:24:25.698Z,73.40
2019-02-16T07:28:30.224Z,74.20
2019-02-16T07:32:34.730Z,74.30
2019-02-16T07:37:49.593Z,73.60
2019-02-16T07:41:54.123Z,73.50
2019-02-16T07:46:07.336Z,73.30
2019-02-16T07:50:29.389Z,74.40
2019-02-16T07:54:41.173Z,73.60
2019-02-16T07:59:10.748Z,74.30
2019-02-16T08:03:34.220Z,73.50
2019-02-16T08:08:07.032Z,73.60
2019-02-16T08:12:36.373Z,73.60
2019-02-16T08:17:05.297Z,73.60
2019-02-16T08:21:17.186Z,74.40
2019-02-16T08:25:43.404Z,74.00
2019-02-16T08:30:10.400Z,73.70
2019-02-16T08:34:27.477Z,73.90
2019-02-16T08:38:50.981Z,73.80
2019-02-16T08:43:13.145Z,73.50
2019-02-16T08:47:32.336Z,73.00
2019-02-16T08:51:55.085Z,73.90
2019-02-16T08:56:13.986Z,74.50
2019-02-16T09:00:40.299Z,73.50
2019-02-16T09:05:12.841Z,73.60
2019-02-16T09:09:35.292Z,73.80
2019-02-16T09:13:53.891Z,73.70
2019-02-16T09:18:23.666Z,72.40
2019-02-16T09:22:48.129Z,72.70
2019-02-16T09:27:31.289Z,74.00
2019-02-16T09:31:57.596Z,73.70
2019-02-16T09:36:16.429Z,73.40
2019-02-16T09:40:39.898Z,72.30
2019-02-16T09:45:02.143Z,72.40
2019-02-16T09:49:23.522Z,71.80
2019-02-16T09:53:49.877Z,72.50
2019-02-16T09:58:31.819Z,71.80
2019-02-16T10:02:46.313Z,72.40
2019-02-16T10:07:09.835Z,73.60
2019-02-16T10:11:32.220Z,73.20
2019-02-16T10:15:54.373Z,72.50
2019-02-16T10:20:11.857Z,71.50
2019-02-16T10:24:37.790Z,71.10
2019-02-16T10:28:51.591Z,70.00
2019-02-16T10:33:13.885Z,69.80
2019-02-16T10:37:36.018Z,66.70
2019-02-16T10:41:58.391Z,70.00
2019-02-16T10:46:21.869Z,69.80
2019-02-16T10:50:34.271Z,70.20
2019-02-16T10:54:56.651Z,68.00
2019-02-16T10:59:26.179Z,69.10
2019-02-16T11:03:52.466Z,70.30
2019-02-16T11:08:12.791Z,70.50
2019-02-16T11:12:36.265Z,71.30
2019-02-16T11:16:49.302Z,69.60
2019-02-16T11:21:22.102Z,70.80
2019-02-16T11:25:51.348Z,71.90
2019-02-16T11:30:26.890Z,69.70
2019-02-16T11:34:38.878Z,71.20
2019-02-16T11:39:08.095Z,71.50
2019-02-16T11:43:43.753Z,71.00
2019-02-16T11:48:16.048Z,70.20
2019-02-16T11:52:38.132Z,70.60
2019-02-16T11:56:56.184Z,72.20
2019-02-16T12:01:09.969Z,70.90
2019-02-16T12:05:28.739Z,70.30
2019-02-16T12:09:50.586Z,71.30
2019-02-16T12:14:12.733Z,71.30
2019-02-16T12:18:39.256Z,69.90
2019-02-16T12:22:53.167Z,72.40
2019-02-16T12:27:22.424Z,71.90
2019-02-16T12:31:51.859Z,71.70
2019-02-16T12:36:07.547Z,70.90
2019-02-16T12:40:21.953Z,70.80
2019-02-16T12:44:35.875Z,72.00
2019-02-16T12:48:59.795Z,71.50
2019-02-16T12:53:32.722Z,71.00
2019-02-16T12:57:51.744Z,71.40
2019-02-16T13:02:16.948Z,71.90
2019-02-16T13:06:39.205Z,71.60
2019-02-16T13:11:02.180Z,72.70
2019-02-16T13:15:16.817Z,69.50
2019-02-16T13:19:43.111Z,67.50
2019-02-16T13:24:08.194Z,68.00
2019-02-16T13:28:43.766Z,65.00
2019-02-16T13:33:08.451Z,69.30
2019-02-16T13:37:18.209Z,70.10
2019-02-16T13:41:57.069Z,67.90
2019-02-16T13:46:20.563Z,69.40
2019-02-16T13:50:33.512Z,68.40
2019-02-16T13:54:58.511Z,68.80
2019-02-16T13:59:20.696Z,70.30
2019-02-16T14:03:37.122Z,68.50
2019-02-16T14:08:03.499Z,70.90
2019-02-16T14:12:19.663Z,67.70
2019-02-16T14:16:43.177Z,65.80
2019-02-16T14:20:47.705Z,67.80
2019-02-16T14:24:54.960Z,68.90
2019-02-16T14:28:59.604Z,68.10
2019-02-16T14:33:04.169Z,68.70
2019-02-16T14:37:19.243Z,67.30
2019-02-16T14:41:23.784Z,68.10
2019-02-16T14:45:28.989Z,69.40
2019-02-16T14:49:33.543Z,69.60
2019-02-16T14:53:38.100Z,69.10
2019-02-16T14:57:42.659Z,67.70
2019-02-16T15:01:47.195Z,68.20
2019-02-16T15:05:51.867Z,70.20
2019-02-16T15:09:56.432Z,70.50
2019-02-16T15:14:01.153Z,70.50
2019-02-16T15:18:05.716Z,71.50
2019-02-16T15:22:10.252Z,71.20
2019-02-16T15:26:14.807Z,71.40
2019-02-16T15:30:19.547Z,71.50
2019-02-16T15:34:24.117Z,70.20
2019-02-16T15:38:28.761Z,71.00
2019-02-16T15:42:33.275Z,70.20
2019-02-16T15:46:37.819Z,69.60
2019-02-16T15:50:42.395Z,69.60
2019-02-16T15:54:46.957Z,69.80
2019-02-16T15:58:51.539Z,69.60
2019-02-16T16:02:56.026Z,70.10
2019-02-16T16:07:01.416Z,69.90
2019-02-16T16:11:09.522Z,69.70
2019-02-16T16:15:26.754Z,70.00
2019-02-16T16:19:46.483Z,69.90
2019-02-16T16:24:15.824Z,70.20
2019-02-16T16:28:45.600Z,70.30
2019-02-16T16:33:27.631Z,69.30
2019-02-16T16:37:51.125Z,70.50
2019-02-16T16:42:20.987Z,70.70
2019-02-16T16:46:44.865Z,70.60
2019-02-16T16:51:26.720Z,70.60
2019-02-16T16:55:43.406Z,69.50
2019-02-16T17:00:00.827Z,69.50
2019-02-16T17:04:24.289Z,69.40
2019-02-16T17:08:52.804Z,70.60
2019-02-16T17:13:07.184Z,67.80
2019-02-16T17:17:27.760Z,69.40
2019-02-16T17:21:51.239Z,70.10
2019-02-16T17:26:24.085Z,70.10
2019-02-16T17:30:47.684Z,70.30
2019-02-16T17:35:14.212Z,69.20
2019-02-16T17:39:37.703Z,67.40
2019-02-16T17:44:07.374Z,67.00
2019-02-16T17:50:32.050Z,66.00
2019-02-16T17:54:58.591Z,66.40
2019-02-16T17:59:11.787Z,65.90
2019-02-16T18:03:33.963Z,65.90
2019-02-16T18:08:15.679Z,65.60
2019-02-16T18:12:50.053Z,65.70
2019-02-16T18:17:31.785Z,65.60
2019-02-16T18:22:02.067Z,65.70
2019-02-16T18:26:23.026Z,66.00
2019-02-16T18:30:58.567Z,66.00
2019-02-16T18:35:13.460Z,65.60
2019-02-16T18:39:39.697Z,65.70
2019-02-16T18:44:09.204Z,65.80
2019-02-16T18:48:44.869Z,65.70
2019-02-16T18:53:11.347Z,65.50
2019-02-16T18:57:47.094Z,65.40
2019-02-16T19:02:16.679Z,66.80
2019-02-16T19:06:31.923Z,67.70
2019-02-16T19:11:04.604Z,67.20
2019-02-16T19:15:31.190Z,66.60
2019-02-16T19:20:10.174Z,66.50
2019-02-16T19:24:30.475Z,67.10
2019-02-16T19:28:52.617Z,66.50
2019-02-16T19:33:18.967Z,67.00
2019-02-16T19:37:32.500Z,66.70
2019-02-16T19:42:05.342Z,66.90
2019-02-16T19:46:47.123Z,66.90
2019-02-16T19:51:10.207Z,67.10
2019-02-16T19:55:42.763Z,67.10
2019-02-16T20:00:12.318Z,67.20
2019-02-16T20:04:34.553Z,67.00
2019-02-16T20:08:48.899Z,66.80
2019-02-16T20:13:18.745Z,66.80
2019-02-16T20:17:51.203Z,67.00
2019-02-16T20:22:20.768Z,67.10
2019-02-16T20:26:34.435Z,67.50
2019-02-16T20:30:49.031Z,67.30
2019-02-16T20:35:11.172Z,68.20
2019-02-16T20:39:46.854Z,67.60
2019-02-16T20:44:16.317Z,67.80
2019-02-16T20:48:32.005Z,67.80
2019-02-16T20:53:04.317Z,68.20
2019-02-16T20:57:26.666Z,68.40
2019-02-16T21:01:48.932Z,68.40
2019-02-16T21:06:11.908Z,68.20
2019-02-16T21:10:50.524Z,68.20
2019-02-16T21:15:32.435Z,68.10
2019-02-16T21:19:44.759Z,68.20
2019-02-16T21:24:11.267Z,68.30
2019-02-16T21:28:32.106Z,68.20
2019-02-16T21:32:42.109Z,68.30
2019-02-16T21:37:11.857Z,68.30
2019-02-16T21:41:35.334Z,68.20
2019-02-16T21:45:57.460Z,68.20
2019-02-16T21:50:27.210Z,68.20
2019-02-16T21:54:39.273Z,68.20
2019-02-16T21:59:07.515Z,68.30
2019-02-16T22:03:33.683Z,68.20
2019-02-16T22:08:03.256Z,68.20
2019-02-16T22:12:26.729Z,68.20
2019-02-16T22:16:31.299Z,68.10
2019-02-16T22:20:35.835Z,68.10
2019-02-16T22:24:40.336Z,69.00
2019-02-16T22:28:44.868Z,68.80
2019-02-16T22:32:49.409Z,69.50
2019-02-16T22:36:53.959Z,70.30
2019-02-16T22:40:58.505Z,68.50
2019-02-16T22:45:03.005Z,69.30
2019-02-16T22:49:07.540Z,70.10
2019-02-16T22:53:12.117Z,70.40
2019-02-16T22:57:31.365Z,69.90
2019-02-16T23:01:36.016Z,69.90
2019-02-16T23:05:40.623Z,70.70
2019-02-16T23:09:45.183Z,70.50
2019-02-16T23:13:49.824Z,70.30
2019-02-16T23:20:42.772Z,70.20
2019-02-16T23:25:26.064Z,70.30
2019-02-16T23:30:25.012Z,70.40
2019-02-16T23:34:29.540Z,70.50
2019-02-16T23:41:56.990Z,70.40
2019-02-16T23:46:30.843Z,70.30
2019-02-16T23:50:35.406Z,71.90
2019-02-16T23:54:39.976Z,71.20
2019-02-16T23:58:49.375Z,70.40
